Time,TemperatureF,DewpointF,PressureIn,WindDirection,WindDirectionDegrees,WindSpeedMPH,WindSpeedGustMPH,Humidity,HourlyPrecipIn,Conditions,Clouds,dailyrainin,SoftwareType,DateUTC
2013-09-02 00:02:00,71.5,68.4,29.87,SSW,205,0.0,0.0,90,0.00,,---,0.00,VWS V14.00,2013-09-02 05:02:00,
2013-09-02 00:07:00,71.4,68.3,29.87,SW,229,1.0,3.0,90,0.00,,---,0.00,VWS V14.00,2013-09-02 05:07:00,
2013-09-02 00:12:00,71.3,68.2,29.86,SSW,206,1.0,2.0,90,0.00,,---,0.00,VWS V14.00,2013-09-02 05:12:00,
2013-09-02 00:17:00,71.2,68.1,29.86,SW,233,1.0,2.0,90,0.00,,---,0.00,VWS V14.00,2013-09-02 05:17:00,
2013-09-02 00:22:00,71.1,68.0,29.86,WSW,240,1.0,2.0,90,0.00,,---,0.00,VWS V14.00,2013-09-02 05:22:00,
2013-09-02 00:27:00,71.0,67.9,29.86,WSW,240,0.0,2.0,90,0.00,,---,0.00,VWS V14.00,2013-09-02 05:27:00,
2013-09-02 00:32:00,71.0,67.9,29.87,WSW,257,1.0,1.0,90,0.00,,---,0.00,VWS V14.00,2013-09-02 05:32:00,
2013-09-02 00:37:00,71.0,67.9,29.87,West,264,0.0,0.0,90,0.00,,---,0.00,VWS V14.00,2013-09-02 05:37:00,
2013-09-02 00:42:00,70.9,67.8,29.86,West,264,0.0,1.0,90,0.00,,---,0.00,VWS V14.00,2013-09-02 05:42:00,
2013-09-02 00:47:00,70.7,67.9,29.86,West,264,0.0,0.0,91,0.00,,---,0.00,VWS V14.00,2013-09-02 05:47:00,
2013-09-02 00:53:00,70.5,68.1,29.86,WNW,300,0.0,1.0,92,0.00,,---,0.00,VWS V14.00,2013-09-02 05:53:00,
2013-09-02 00:58:00,70.2,67.8,29.86,WNW,300,0.0,0.0,92,0.00,,---,0.00,VWS V14.00,2013-09-02 05:58:00,
2013-09-02 01:03:00,69.9,67.5,29.86,WNW,301,0.0,0.0,92,0.00,,---,0.00,VWS V14.00,2013-09-02 06:03:00,
2013-09-02 01:08:00,69.4,67.3,29.86,WNW,301,0.0,0.0,93,0.00,,---,0.00,VWS V14.00,2013-09-02 06:08:00,
2013-09-02 01:13:00,69.1,67.0,29.86,WNW,301,0.0,0.0,93,0.00,,---,0.00,VWS V14.00,2013-09-02 06:13:00,
2013-09-02 01:18:00,68.9,67.1,29.86,WNW,299,0.0,0.0,94,0.00,,---,0.00,VWS V14.00,2013-09-02 06:18:00,
2013-09-02 01:23:00,68.9,67.1,29.86,NNW,341,1.0,1.0,94,0.00,,---,0.00,VWS V14.00,2013-09-02 06:23:00,
2013-09-02 01:28:00,69.0,67.5,29.85,North,9,2.0,2.0,95,0.00,,---,0.00,VWS V14.00,2013-09-02 06:28:00,
2013-09-02 01:33:00,69.1,67.6,29.85,NNE,12,1.0,2.0,95,0.00,,---,0.00,VWS V14.00,2013-09-02 06:33:00,
2013-09-02 01:38:00,69.1,67.6,29.85,North,8,2.0,2.0,95,0.00,,---,0.00,VWS V14.00,2013-09-02 06:38:00,
2013-09-02 01:43:00,69.1,67.6,29.85,NNE,18,2.0,2.0,95,0.00,,---,0.00,VWS V14.00,2013-09-02 06:43:00,
2013-09-02 01:48:00,69.1,67.6,29.85,NNE,20,0.0,1.0,95,0.00,,---,0.00,VWS V14.00,2013-09-02 06:48:00,
2013-09-02 01:53:00,68.9,67.1,29.85,NNE,20,0.0,0.0,94,0.00,,---,0.00,VWS V14.00,2013-09-02 06:53:00,
2013-09-02 01:59:00,68.8,67.3,29.85,NNE,20,0.0,1.0,95,0.00,,---,0.00,VWS V14.00,2013-09-02 06:59:00,
2013-09-02 02:04:00,68.7,67.2,29.84,NNE,20,0.0,0.0,95,0.00,,---,0.00,VWS V14.00,2013-09-02 07:04:00,
2013-09-02 02:09:00,68.6,67.1,29.84,NNE,21,0.0,0.0,95,0.00,,---,0.00,VWS V14.00,2013-09-02 07:09:00,
2013-09-02 02:14:00,68.4,66.9,29.84,NNE,20,0.0,0.0,95,0.00,,---,0.00,VWS V14.00,2013-09-02 07:14:00,
2013-09-02 02:19:00,68.4,66.9,29.84,NNE,20,0.0,0.0,95,0.00,,---,0.00,VWS V14.00,2013-09-02 07:19:00,
2013-09-02 02:24:00,68.5,67.0,29.84,NNE,20,0.0,1.0,95,0.00,,---,0.00,VWS V14.00,2013-09-02 07:24:00,
2013-09-02 02:29:00,68.3,66.8,29.84,NNE,21,0.0,0.0,95,0.00,,---,0.00,VWS V14.00,2013-09-02 07:29:00,
2013-09-02 02:34:00,68.1,66.6,29.84,NNE,20,0.0,0.0,95,0.00,,---,0.00,VWS V14.00,2013-09-02 07:34:00,
2013-09-02 02:39:00,68.0,66.8,29.84,NNE,20,0.0,0.0,96,0.00,,---,0.00,VWS V14.00,2013-09-02 07:39:00,
2013-09-02 02:44:00,67.9,66.7,29.84,NNE,20,0.0,0.0,96,0.00,,---,0.00,VWS V14.00,2013-09-02 07:44:00,
2013-09-02 02:49:00,67.8,66.6,29.84,NNE,20,0.0,0.0,96,0.00,,---,0.00,VWS V14.00,2013-09-02 07:49:00,
2013-09-02 02:54:00,67.6,66.4,29.84,NNE,20,0.0,0.0,96,0.00,,---,0.00,VWS V14.00,2013-09-02 07:54:00,
2013-09-02 02:59:00,67.6,66.4,29.84,NNE,20,0.0,0.0,96,0.00,,---,0.00,VWS V14.00,2013-09-02 07:59:00,
2013-09-02 03:04:00,67.4,66.2,29.84,NNE,20,0.0,0.0,96,0.00,,---,0.00,VWS V14.00,2013-09-02 08:04:00,
2013-09-02 03:09:00,67.5,66.3,29.84,NNE,20,0.0,0.0,96,0.00,,---,0.00,VWS V14.00,2013-09-02 08:09:00,
2013-09-02 03:14:00,67.4,66.2,29.84,NNE,20,0.0,1.0,96,0.00,,---,0.00,VWS V14.00,2013-09-02 08:14:00,
2013-09-02 03:19:00,67.2,66.0,29.84,NNE,21,0.0,0.0,96,0.00,,---,0.00,VWS V14.00,2013-09-02 08:19:00,
2013-09-02 03:24:00,67.2,66.0,29.84,NNE,20,0.0,1.0,96,0.00,,---,0.00,VWS V14.00,2013-09-02 08:24:00,
2013-09-02 03:29:00,67.3,66.1,29.84,NNE,20,0.0,1.0,96,0.00,,---,0.00,VWS V14.00,2013-09-02 08:29:00,
2013-09-02 03:34:00,67.2,66.0,29.84,NNE,20,0.0,0.0,96,0.00,,---,0.00,VWS V14.00,2013-09-02 08:34:00,
2013-09-02 03:39:00,67.1,65.9,29.85,NNE,20,0.0,0.0,96,0.00,,---,0.00,VWS V14.00,2013-09-02 08:39:00,
2013-09-02 03:44:00,67.0,65.8,29.85,East,95,0.0,1.0,96,0.00,,---,0.00,VWS V14.00,2013-09-02 08:44:00,
2013-09-02 03:49:00,66.8,65.6,29.85,East,95,0.0,1.0,96,0.00,,---,0.00,VWS V14.00,2013-09-02 08:49:00,
2013-09-02 03:54:00,66.5,65.3,29.85,East,95,0.0,0.0,96,0.00,,---,0.00,VWS V14.00,2013-09-02 08:54:00,
2013-09-02 03:59:00,66.4,65.2,29.84,East,94,0.0,0.0,96,0.00,,---,0.00,VWS V14.00,2013-09-02 08:59:00,
2013-09-02 04:04:00,66.4,65.5,29.84,East,95,0.0,0.0,97,0.00,,---,0.00,VWS V14.00,2013-09-02 09:04:00,
2013-09-02 04:09:00,66.7,65.8,29.85,East,95,0.0,0.0,97,0.00,,---,0.00,VWS V14.00,2013-09-02 09:09:00,
2013-09-02 04:14:00,66.9,66.0,29.85,East,94,0.0,0.0,97,0.00,,---,0.00,VWS V14.00,2013-09-02 09:14:00,
2013-09-02 04:19:00,67.1,66.2,29.85,East,95,0.0,0.0,97,0.00,,---,0.00,VWS V14.00,2013-09-02 09:19:00,
2013-09-02 04:24:00,67.1,66.2,29.85,East,95,0.0,0.0,97,0.00,,---,0.00,VWS V14.00,2013-09-02 09:24:00,
2013-09-02 04:29:00,67.1,66.2,29.85,East,94,0.0,0.0,97,0.00,,---,0.00,VWS V14.00,2013-09-02 09:29:00,
2013-09-02 04:34:00,67.2,66.3,29.85,East,94,0.0,1.0,97,0.00,,---,0.00,VWS V14.00,2013-09-02 09:34:00,
2013-09-02 04:39:00,67.3,66.4,29.86,East,95,0.0,0.0,97,0.00,,---,0.00,VWS V14.00,2013-09-02 09:39:00,
2013-09-02 04:44:00,67.5,66.6,29.86,East,94,0.0,1.0,97,0.00,,---,0.00,VWS V14.00,2013-09-02 09:44:00,
2013-09-02 04:49:00,67.9,67.0,29.86,East,95,0.0,0.0,97,0.00,,---,0.00,VWS V14.00,2013-09-02 09:49:00,
2013-09-02 04:54:00,67.9,67.0,29.86,East,95,0.0,0.0,97,0.00,,---,0.00,VWS V14.00,2013-09-02 09:54:00,
2013-09-02 04:59:00,67.6,66.7,29.86,East,95,0.0,0.0,97,0.00,,---,0.00,VWS V14.00,2013-09-02 09:59:00,
2013-09-02 05:04:00,67.4,66.5,29.86,East,94,0.0,0.0,97,0.00,,---,0.00,VWS V14.00,2013-09-02 10:04:00,
2013-09-02 05:09:00,67.2,66.3,29.86,East,94,0.0,0.0,97,0.00,,---,0.00,VWS V14.00,2013-09-02 10:09:00,
2013-09-02 05:14:00,67.4,66.5,29.86,East,95,0.0,0.0,97,0.00,,---,0.00,VWS V14.00,2013-09-02 10:14:00,
2013-09-02 05:19:00,67.5,66.6,29.86,East,95,0.0,0.0,97,0.00,,---,0.00,VWS V14.00,2013-09-02 10:19:00,
2013-09-02 05:24:00,67.4,66.5,29.86,East,94,0.0,0.0,97,0.00,,---,0.00,VWS V14.00,2013-09-02 10:24:00,
2013-09-02 05:29:00,67.6,66.7,29.86,East,95,1.0,1.0,97,0.00,,---,0.00,VWS V14.00,2013-09-02 10:29:00,
2013-09-02 05:34:00,67.6,66.7,29.86,East,94,0.0,1.0,97,0.00,,---,0.00,VWS V14.00,2013-09-02 10:34:00,
2013-09-02 05:39:00,67.4,66.5,29.86,East,95,0.0,0.0,97,0.00,,---,0.00,VWS V14.00,2013-09-02 10:39:00,
2013-09-02 05:44:00,66.8,65.9,29.86,East,95,0.0,0.0,97,0.00,,---,0.00,VWS V14.00,2013-09-02 10:44:00,
2013-09-02 05:49:00,66.7,65.8,29.87,East,95,1.0,1.0,97,0.00,,---,0.00,VWS V14.00,2013-09-02 10:49:00,
2013-09-02 05:54:00,66.6,65.7,29.87,East,95,0.0,1.0,97,0.00,,---,0.00,VWS V14.00,2013-09-02 10:54:00,
2013-09-02 05:59:00,67.0,66.1,29.87,East,95,0.0,1.0,97,0.00,,---,0.00,VWS V14.00,2013-09-02 10:59:00,
2013-09-02 06:04:00,67.4,66.5,29.87,East,95,1.0,1.0,97,0.00,,---,0.00,VWS V14.00,2013-09-02 11:04:00,
2013-09-02 06:09:00,67.7,66.8,29.87,SE,138,0.0,2.0,97,0.00,,---,0.00,VWS V14.00,2013-09-02 11:09:00,
2013-09-02 06:14:00,68.0,67.1,29.87,SE,138,0.0,0.0,97,0.00,,---,0.00,VWS V14.00,2013-09-02 11:14:00,
2013-09-02 06:19:00,68.1,67.2,29.87,SE,138,1.0,1.0,97,0.00,,---,0.00,VWS V14.00,2013-09-02 11:19:00,
2013-09-02 06:24:00,68.2,67.3,29.87,ESE,108,0.0,1.0,97,0.00,,---,0.00,VWS V14.00,2013-09-02 11:24:00,
2013-09-02 06:29:00,68.2,67.3,29.87,ESE,109,0.0,1.0,97,0.00,,---,0.00,VWS V14.00,2013-09-02 11:29:00,
2013-09-02 06:34:00,68.3,67.4,29.87,ESE,109,0.0,1.0,97,0.00,,---,0.00,VWS V14.00,2013-09-02 11:34:00,
2013-09-02 06:39:00,68.2,67.3,29.87,ESE,108,0.0,0.0,97,0.00,,---,0.00,VWS V14.00,2013-09-02 11:39:00,
2013-09-02 06:44:00,68.1,67.2,29.87,ESE,108,0.0,1.0,97,0.00,,---,0.00,VWS V14.00,2013-09-02 11:44:00,
2013-09-02 06:49:00,68.0,67.1,29.88,ESE,108,0.0,0.0,97,0.00,,---,0.00,VWS V14.00,2013-09-02 11:49:00,
2013-09-02 06:54:00,67.9,67.0,29.88,ESE,108,0.0,0.0,97,0.00,,---,0.00,VWS V14.00,2013-09-02 11:54:00,
2013-09-02 06:59:00,67.8,66.9,29.88,ESE,108,0.0,1.0,97,0.00,,---,0.00,VWS V14.00,2013-09-02 11:59:00,
2013-09-02 07:04:00,68.0,67.1,29.88,ESE,108,0.0,0.0,97,0.00,,---,0.00,VWS V14.00,2013-09-02 12:04:00,
2013-09-02 07:09:00,68.3,67.4,29.89,ESE,108,0.0,0.0,97,0.00,,---,0.00,VWS V14.00,2013-09-02 12:09:00,
2013-09-02 07:14:00,68.6,67.7,29.89,ESE,108,0.0,1.0,97,0.00,,---,0.00,VWS V14.00,2013-09-02 12:14:00,
2013-09-02 07:19:00,68.9,68.0,29.89,ESE,108,1.0,1.0,97,0.00,,---,0.00,VWS V14.00,2013-09-02 12:19:00,
2013-09-02 07:24:00,69.2,68.3,29.89,ESE,108,1.0,1.0,97,0.00,,---,0.00,VWS V14.00,2013-09-02 12:24:00,
2013-09-02 07:29:00,69.5,68.6,29.89,ESE,108,0.0,1.0,97,0.00,,---,0.00,VWS V14.00,2013-09-02 12:29:00,
2013-09-02 07:34:00,69.7,68.8,29.89,ESE,108,1.0,1.0,97,0.01,,---,0.01,VWS V14.00,2013-09-02 12:34:00,
2013-09-02 07:39:00,69.9,69.0,29.89,East,95,2.0,2.0,97,0.01,,---,0.01,VWS V14.00,2013-09-02 12:39:00,
2013-09-02 07:44:00,70.0,69.1,29.89,East,94,1.0,2.0,97,0.01,,---,0.01,VWS V14.00,2013-09-02 12:44:00,
2013-09-02 07:49:00,70.3,69.4,29.89,ESE,113,0.0,2.0,97,0.01,,---,0.01,VWS V14.00,2013-09-02 12:49:00,
2013-09-02 07:54:00,70.5,69.3,29.89,ESE,108,0.0,1.0,96,0.01,,---,0.01,VWS V14.00,2013-09-02 12:54:00,
2013-09-02 07:59:00,70.9,69.7,29.89,ESE,108,0.0,1.0,96,0.01,,---,0.01,VWS V14.00,2013-09-02 12:59:00,
2013-09-02 08:04:00,71.2,70.0,29.89,SSW,193,1.0,2.0,96,0.01,,---,0.01,VWS V14.00,2013-09-02 13:04:00,
2013-09-02 08:09:00,71.2,69.7,29.89,ESE,104,3.0,3.0,95,0.01,,---,0.01,VWS V14.00,2013-09-02 13:09:00,
2013-09-02 08:14:00,71.4,69.9,29.89,ESE,108,2.0,4.0,95,0.01,,---,0.01,VWS V14.00,2013-09-02 13:14:00,
2013-09-02 08:19:00,71.5,70.0,29.89,SE,126,3.0,3.0,95,0.01,,---,0.01,VWS V14.00,2013-09-02 13:19:00,
2013-09-02 08:24:00,71.6,70.1,29.89,SSE,148,1.0,3.0,95,0.01,,---,0.01,VWS V14.00,2013-09-02 13:24:00,
2013-09-02 08:29:00,71.8,70.0,29.89,SE,139,3.0,4.0,94,0.01,,---,0.01,VWS V14.00,2013-09-02 13:29:00,
2013-09-02 08:34:00,71.9,70.1,29.89,SE,139,3.0,4.0,94,0.01,,---,0.01,VWS V14.00,2013-09-02 13:34:00,
2013-09-02 08:39:00,72.5,70.7,29.89,ESE,116,4.0,4.0,94,0.00,,---,0.01,VWS V14.00,2013-09-02 13:39:00,
2013-09-02 08:44:00,72.8,70.7,29.89,SSE,149,2.0,4.0,93,0.00,,---,0.01,VWS V14.00,2013-09-02 13:44:00,
2013-09-02 08:49:00,73.3,70.8,29.89,ESE,117,5.0,6.0,92,0.00,,---,0.01,VWS V14.00,2013-09-02 13:49:00,
2013-09-02 08:54:00,74.1,71.6,29.89,South,177,2.0,6.0,92,0.00,,---,0.01,VWS V14.00,2013-09-02 13:54:00,
2013-09-02 08:59:00,74.7,71.6,29.90,South,191,3.0,5.0,90,0.00,,---,0.01,VWS V14.00,2013-09-02 13:59:00,
2013-09-02 09:04:00,75.2,72.1,29.90,SSE,150,3.0,5.0,90,0.00,,---,0.01,VWS V14.00,2013-09-02 14:04:00,
2013-09-02 09:09:00,75.9,72.1,29.90,SW,217,4.0,5.0,88,0.00,,---,0.01,VWS V14.00,2013-09-02 14:09:00,
2013-09-02 09:14:00,76.1,71.9,29.90,South,188,2.0,5.0,87,0.00,,---,0.01,VWS V14.00,2013-09-02 14:14:00,
2013-09-02 09:19:00,76.3,72.2,29.90,SE,136,2.0,5.0,87,0.00,,---,0.01,VWS V14.00,2013-09-02 14:19:00,
2013-09-02 09:24:00,76.5,72.7,29.90,SE,137,4.0,4.0,88,0.00,,---,0.01,VWS V14.00,2013-09-02 14:24:00,
2013-09-02 09:29:00,77.1,72.6,29.90,SSW,193,4.0,5.0,86,0.00,,---,0.01,VWS V14.00,2013-09-02 14:29:00,
2013-09-02 09:34:00,78.0,73.1,29.90,SSW,207,3.0,6.0,85,0.00,,---,0.01,VWS V14.00,2013-09-02 14:34:00,
2013-09-02 09:39:00,78.8,73.9,29.90,SW,224,1.0,5.0,85,0.00,,---,0.01,VWS V14.00,2013-09-02 14:39:00,
2013-09-02 09:44:00,79.8,74.2,29.91,South,186,4.0,5.0,83,0.00,,---,0.01,VWS V14.00,2013-09-02 14:44:00,
2013-09-02 09:49:00,79.9,73.9,29.91,SE,141,1.0,4.0,82,0.00,,---,0.01,VWS V14.00,2013-09-02 14:49:00,
2013-09-02 09:54:00,79.9,73.6,29.91,WSW,250,2.0,5.0,81,0.00,,---,0.01,VWS V14.00,2013-09-02 14:54:00,
2013-09-02 09:59:00,80.2,74.6,29.91,WSW,248,2.0,3.0,83,0.00,,---,0.01,VWS V14.00,2013-09-02 14:59:00,
2013-09-02 10:04:00,80.5,74.1,29.91,West,260,1.0,5.0,81,0.00,,---,0.01,VWS V14.00,2013-09-02 15:04:00,
2013-09-02 10:09:00,81.7,75.3,29.91,SW,226,3.0,6.0,81,0.00,,---,0.01,VWS V14.00,2013-09-02 15:09:00,
2013-09-02 10:14:00,82.2,74.7,29.91,SSW,195,0.0,4.0,78,0.00,,---,0.01,VWS V14.00,2013-09-02 15:14:00,
2013-09-02 10:19:00,82.4,74.9,29.91,SSW,207,2.0,4.0,78,0.00,,---,0.01,VWS V14.00,2013-09-02 15:19:00,
2013-09-02 10:24:00,82.6,75.1,29.91,SW,222,3.0,8.0,78,0.00,,---,0.01,VWS V14.00,2013-09-02 15:24:00,
2013-09-02 10:29:00,82.5,74.9,29.91,SSW,211,3.0,3.0,78,0.00,,---,0.01,VWS V14.00,2013-09-02 15:29:00,
2013-09-02 10:34:00,81.7,74.6,29.91,SSE,158,2.0,6.0,79,0.00,,---,0.01,VWS V14.00,2013-09-02 15:34:00,
2013-09-02 10:39:00,82.1,75.7,29.91,South,177,4.0,6.0,81,0.00,,---,0.01,VWS V14.00,2013-09-02 15:39:00,
2013-09-02 10:44:00,82.1,75.7,29.91,WSW,253,4.0,5.0,81,0.00,,---,0.01,VWS V14.00,2013-09-02 15:44:00,
2013-09-02 10:49:00,82.7,74.8,29.91,SW,233,3.0,5.0,77,0.00,,---,0.01,VWS V14.00,2013-09-02 15:49:00,
2013-09-02 10:54:00,82.8,75.2,29.91,SSE,162,2.0,3.0,78,0.00,,---,0.01,VWS V14.00,2013-09-02 15:54:00,
2013-09-02 10:59:00,82.7,74.8,29.91,WSW,255,4.0,7.0,77,0.00,,---,0.01,VWS V14.00,2013-09-02 15:59:00,
2013-09-02 11:04:00,82.3,74.4,29.91,WSW,253,3.0,7.0,77,0.00,,---,0.01,VWS V14.00,2013-09-02 16:04:00,
2013-09-02 11:09:00,82.8,74.5,29.90,WSW,241,2.0,4.0,76,0.00,,---,0.01,VWS V14.00,2013-09-02 16:09:00,
2013-09-02 11:14:00,83.9,74.7,29.91,WSW,257,2.0,4.0,74,0.00,,---,0.01,VWS V14.00,2013-09-02 16:14:00,
2013-09-02 11:19:00,84.6,75.0,29.90,SSE,152,3.0,6.0,73,0.00,,---,0.01,VWS V14.00,2013-09-02 16:19:00,
2013-09-02 11:24:00,85.1,75.1,29.91,SW,225,5.0,6.0,72,0.00,,---,0.01,VWS V14.00,2013-09-02 16:24:00,
2013-09-02 11:29:00,85.2,75.6,29.90,WSW,246,1.0,5.0,73,0.00,,---,0.01,VWS V14.00,2013-09-02 16:29:00,
2013-09-02 11:34:00,86.1,76.0,29.90,SE,124,1.0,3.0,72,0.00,,---,0.01,VWS V14.00,2013-09-02 16:34:00,
2013-09-02 11:39:00,86.0,75.5,29.90,SSE,165,2.0,5.0,71,0.00,,---,0.01,VWS V14.00,2013-09-02 16:39:00,
2013-09-02 11:44:00,86.1,74.8,29.90,SE,141,2.0,6.0,69,0.00,,---,0.01,VWS V14.00,2013-09-02 16:44:00,
2013-09-02 11:49:00,86.0,75.1,29.90,NW,318,0.0,4.0,70,0.00,,---,0.01,VWS V14.00,2013-09-02 16:49:00,
2013-09-02 11:54:00,87.1,75.7,29.90,WNW,290,1.0,3.0,69,0.00,,---,0.01,VWS V14.00,2013-09-02 16:54:00,
2013-09-02 11:59:00,87.3,75.4,29.90,SSE,158,2.0,7.0,68,0.00,,---,0.01,VWS V14.00,2013-09-02 16:59:00,
2013-09-02 12:04:00,86.3,74.5,29.90,SW,214,3.0,6.0,68,0.00,,---,0.01,VWS V14.00,2013-09-02 17:04:00,
2013-09-02 12:09:00,86.0,75.1,29.90,SW,233,3.0,4.0,70,0.00,,---,0.01,VWS V14.00,2013-09-02 17:09:00,
2013-09-02 12:14:00,86.6,74.3,29.89,SW,226,2.0,3.0,67,0.00,,---,0.01,VWS V14.00,2013-09-02 17:14:00,
2013-09-02 12:19:00,86.1,74.3,29.89,West,269,0.0,4.0,68,0.00,,---,0.01,VWS V14.00,2013-09-02 17:19:00,
2013-09-02 12:24:00,86.1,75.2,29.89,North,354,1.0,3.0,70,0.00,,---,0.01,VWS V14.00,2013-09-02 17:24:00,
2013-09-02 12:29:00,87.4,76.0,29.89,West,276,1.0,2.0,69,0.00,,---,0.01,VWS V14.00,2013-09-02 17:29:00,
2013-09-02 12:34:00,87.1,75.7,29.89,WSW,245,3.0,5.0,69,0.00,,---,0.01,VWS V14.00,2013-09-02 17:34:00,
2013-09-02 12:39:00,86.9,75.9,29.89,SW,224,1.0,4.0,70,0.00,,---,0.01,VWS V14.00,2013-09-02 17:39:00,
2013-09-02 12:44:00,87.2,74.9,29.89,SW,222,3.0,4.0,67,0.00,,---,0.01,VWS V14.00,2013-09-02 17:44:00,
2013-09-02 12:49:00,87.2,74.9,29.89,WSW,242,3.0,9.0,67,0.00,,---,0.01,VWS V14.00,2013-09-02 17:49:00,
2013-09-02 12:54:00,87.2,75.4,29.88,WSW,238,1.0,4.0,68,0.00,,---,0.01,VWS V14.00,2013-09-02 17:54:00,
2013-09-02 12:59:00,86.9,75.1,29.88,WSW,240,2.0,4.0,68,0.00,,---,0.01,VWS V14.00,2013-09-02 17:59:00,
2013-09-02 13:04:00,87.1,75.7,29.88,SSE,155,1.0,6.0,69,0.00,,---,0.01,VWS V14.00,2013-09-02 18:04:00,
2013-09-02 13:09:00,87.2,75.4,29.88,WSW,256,0.0,3.0,68,0.00,,---,0.01,VWS V14.00,2013-09-02 18:09:00,
2013-09-02 13:14:00,87.6,74.8,29.88,West,269,0.0,4.0,66,0.00,,---,0.01,VWS V14.00,2013-09-02 18:14:00,
2013-09-02 13:19:00,88.2,75.4,29.88,WSW,242,4.0,4.0,66,0.00,,---,0.01,VWS V14.00,2013-09-02 18:19:00,
2013-09-02 13:24:00,87.8,75.0,29.88,South,187,3.0,4.0,66,0.00,,---,0.01,VWS V14.00,2013-09-02 18:24:00,
2013-09-02 13:29:00,87.3,75.0,29.88,SW,225,4.0,6.0,67,0.00,,---,0.01,VWS V14.00,2013-09-02 18:29:00,
2013-09-02 13:34:00,87.2,74.9,29.88,SSW,198,0.0,4.0,67,0.00,,---,0.01,VWS V14.00,2013-09-02 18:34:00,
2013-09-02 13:39:00,87.7,74.5,29.88,SSW,198,0.0,0.0,65,0.00,,---,0.01,VWS V14.00,2013-09-02 18:39:00,
2013-09-02 13:44:00,87.9,74.7,29.88,West,280,1.0,2.0,65,0.00,,---,0.01,VWS V14.00,2013-09-02 18:44:00,
2013-09-02 13:49:00,87.1,74.4,29.88,WNW,293,0.0,3.0,66,0.00,,---,0.01,VWS V14.00,2013-09-02 18:49:00,
2013-09-02 13:54:00,87.1,74.8,29.87,WSW,256,0.0,2.0,67,0.00,,---,0.01,VWS V14.00,2013-09-02 18:54:00,
2013-09-02 13:59:00,87.2,74.5,29.86,WNW,299,1.0,1.0,66,0.00,,---,0.01,VWS V14.00,2013-09-02 18:59:00,
2013-09-02 14:04:00,87.2,74.9,29.86,West,260,1.0,1.0,67,0.00,,---,0.01,VWS V14.00,2013-09-02 19:04:00,
2013-09-02 14:09:00,87.0,74.3,29.86,NW,309,2.0,2.0,66,0.00,,---,0.01,VWS V14.00,2013-09-02 19:09:00,
2013-09-02 14:14:00,87.6,76.6,29.85,WSW,257,1.0,2.0,70,0.00,,---,0.01,VWS V14.00,2013-09-02 19:14:00,
2013-09-02 14:19:00,88.5,75.7,29.85,WSW,252,2.0,3.0,66,0.00,,---,0.01,VWS V14.00,2013-09-02 19:19:00,
2013-09-02 14:25:00,88.9,75.2,29.85,SW,235,2.0,2.0,64,0.00,,---,0.01,VWS V14.00,2013-09-02 19:25:00,
2013-09-02 14:30:00,88.7,74.5,29.85,SW,233,2.0,2.0,63,0.00,,---,0.01,VWS V14.00,2013-09-02 19:30:00,
2013-09-02 14:35:00,88.3,75.1,29.85,WSW,255,0.0,0.0,65,0.00,,---,0.01,VWS V14.00,2013-09-02 19:35:00,
2013-09-02 14:40:00,88.4,76.1,29.85,West,274,1.0,2.0,67,0.00,,---,0.01,VWS V14.00,2013-09-02 19:40:00,
2013-09-02 14:45:00,88.3,75.5,29.85,WSW,245,0.0,0.0,66,0.00,,---,0.01,VWS V14.00,2013-09-02 19:45:00,
2013-09-02 14:50:00,89.0,74.8,29.85,WNW,285,3.0,3.0,63,0.00,,---,0.01,VWS V14.00,2013-09-02 19:50:00,
2013-09-02 14:55:00,89.0,74.8,29.84,West,259,2.0,4.0,63,0.00,,---,0.01,VWS V14.00,2013-09-02 19:55:00,
2013-09-02 15:00:00,88.6,73.9,29.84,SSW,205,4.0,7.0,62,0.00,,---,0.01,VWS V14.00,2013-09-02 20:00:00,
2013-09-02 15:05:00,87.2,74.0,29.84,SSW,205,2.0,4.0,65,0.00,,---,0.01,VWS V14.00,2013-09-02 20:05:00,
2013-09-02 15:10:00,86.4,73.7,29.83,SW,232,4.0,6.0,66,0.00,,---,0.01,VWS V14.00,2013-09-02 20:10:00,
2013-09-02 15:16:00,85.8,74.0,29.83,WSW,249,4.0,6.0,68,0.00,,---,0.01,VWS V14.00,2013-09-02 20:16:00,
2013-09-02 15:21:00,85.6,73.8,29.83,WSW,257,3.0,5.0,68,0.00,,---,0.01,VWS V14.00,2013-09-02 20:21:00,
2013-09-02 15:26:00,85.5,74.2,29.83,WSW,252,1.0,3.0,69,0.00,,---,0.01,VWS V14.00,2013-09-02 20:26:00,
2013-09-02 15:31:00,85.4,74.9,29.83,WSW,242,3.0,4.0,71,0.00,,---,0.01,VWS V14.00,2013-09-02 20:31:00,
2013-09-02 15:36:00,85.2,75.2,29.83,West,260,1.0,3.0,72,0.00,,---,0.01,VWS V14.00,2013-09-02 20:36:00,
2013-09-02 15:41:00,85.2,75.6,29.83,West,267,2.0,3.0,73,0.00,,---,0.01,VWS V14.00,2013-09-02 20:41:00,
2013-09-02 15:46:00,85.0,75.0,29.83,NNW,345,3.0,3.0,72,0.00,,---,0.01,VWS V14.00,2013-09-02 20:46:00,
2013-09-02 15:51:00,85.0,75.0,29.83,NW,319,3.0,4.0,72,0.00,,---,0.01,VWS V14.00,2013-09-02 20:51:00,
2013-09-02 15:56:00,85.0,75.4,29.83,NNW,333,1.0,3.0,73,0.00,,---,0.01,VWS V14.00,2013-09-02 20:56:00,
2013-09-02 16:01:00,85.2,75.2,29.83,WNW,285,1.0,3.0,72,0.00,,---,0.01,VWS V14.00,2013-09-02 21:01:00,
2013-09-02 16:06:00,85.2,76.0,29.83,North,350,6.0,6.0,74,0.00,,---,0.01,VWS V14.00,2013-09-02 21:06:00,
2013-09-02 16:12:00,84.2,75.4,29.83,WNW,291,1.0,6.0,75,0.00,,---,0.01,VWS V14.00,2013-09-02 21:12:00,
2013-09-02 16:17:00,84.6,75.4,29.83,NNE,12,1.0,4.0,74,0.00,,---,0.01,VWS V14.00,2013-09-02 21:17:00,
2013-09-02 16:22:00,84.2,75.8,29.83,WNW,298,2.0,4.0,76,0.00,,---,0.01,VWS V14.00,2013-09-02 21:22:00,
2013-09-02 16:27:00,84.5,74.9,29.83,WNW,293,3.0,3.0,73,0.00,,---,0.01,VWS V14.00,2013-09-02 21:27:00,
2013-09-02 16:32:00,84.9,75.3,29.83,WNW,287,4.0,6.0,73,0.00,,---,0.01,VWS V14.00,2013-09-02 21:32:00,
2013-09-02 16:37:00,85.6,76.4,29.83,WSW,257,3.0,5.0,74,0.00,,---,0.01,VWS V14.00,2013-09-02 21:37:00,
2013-09-02 16:42:00,86.1,75.6,29.83,West,259,5.0,6.0,71,0.00,,---,0.01,VWS V14.00,2013-09-02 21:42:00,
2013-09-02 16:47:00,86.1,76.0,29.82,WSW,245,2.0,5.0,72,0.00,,---,0.01,VWS V14.00,2013-09-02 21:47:00,
2013-09-02 16:52:00,86.3,76.2,29.82,SW,231,2.0,4.0,72,0.00,,---,0.01,VWS V14.00,2013-09-02 21:52:00,
2013-09-02 16:57:00,86.2,75.7,29.82,WSW,243,4.0,5.0,71,0.00,,---,0.01,VWS V14.00,2013-09-02 21:57:00,
2013-09-02 17:02:00,85.6,75.5,29.83,WSW,257,3.0,6.0,72,0.00,,---,0.01,VWS V14.00,2013-09-02 22:02:00,
2013-09-02 17:07:00,85.5,74.6,29.83,West,269,5.0,6.0,70,0.00,,---,0.01,VWS V14.00,2013-09-02 22:07:00,
2013-09-02 17:13:00,85.0,73.3,29.83,WSW,256,3.0,7.0,68,0.00,,---,0.01,VWS V14.00,2013-09-02 22:13:00,
2013-09-02 17:18:00,84.6,73.7,29.83,West,278,4.0,6.0,70,0.00,,---,0.01,VWS V14.00,2013-09-02 22:18:00,
2013-09-02 17:23:00,83.2,74.1,29.83,NNW,334,5.0,11.0,74,0.00,,---,0.01,VWS V14.00,2013-09-02 22:23:00,
2013-09-02 17:28:00,82.0,74.1,29.84,NW,318,2.0,9.0,77,0.00,,---,0.01,VWS V14.00,2013-09-02 22:28:00,
2013-09-02 17:33:00,81.2,73.7,29.84,NNE,19,3.0,4.0,78,0.00,,---,0.01,VWS V14.00,2013-09-02 22:33:00,
2013-09-02 17:38:00,80.8,73.3,29.84,WNW,298,1.0,5.0,78,0.00,,---,0.01,VWS V14.00,2013-09-02 22:38:00,
2013-09-02 17:43:00,80.4,73.3,29.84,NW,311,0.0,4.0,79,0.00,,---,0.01,VWS V14.00,2013-09-02 22:43:00,
2013-09-02 17:49:00,80.0,73.7,29.84,West,276,0.0,5.0,81,0.00,,---,0.01,VWS V14.00,2013-09-02 22:49:00,
2013-09-02 17:54:00,79.7,73.4,29.84,NNW,334,1.0,6.0,81,0.00,,---,0.01,VWS V14.00,2013-09-02 22:54:00,
2013-09-02 17:59:00,80.0,74.0,29.84,NW,323,4.0,4.0,82,0.00,,---,0.01,VWS V14.00,2013-09-02 22:59:00,
2013-09-02 18:04:00,80.4,74.0,29.85,NE,36,5.0,5.0,81,0.00,,---,0.01,VWS V14.00,2013-09-02 23:04:00,
2013-09-02 18:09:00,80.5,74.1,29.85,North,351,1.0,6.0,81,0.00,,---,0.01,VWS V14.00,2013-09-02 23:09:00,
2013-09-02 18:14:00,80.7,74.3,29.85,West,276,1.0,4.0,81,0.00,,---,0.01,VWS V14.00,2013-09-02 23:14:00,
2013-09-02 18:19:00,80.8,74.1,29.85,NW,305,2.0,4.0,80,0.00,,---,0.01,VWS V14.00,2013-09-02 23:19:00,
2013-09-02 18:24:00,81.1,74.3,29.85,WSW,255,4.0,4.0,80,0.00,,---,0.01,VWS V14.00,2013-09-02 23:24:00,
2013-09-02 18:29:00,80.9,74.2,29.84,NW,307,1.0,4.0,80,0.00,,---,0.01,VWS V14.00,2013-09-02 23:29:00,
2013-09-02 18:34:00,80.7,74.3,29.84,West,264,0.0,4.0,81,0.00,,---,0.01,VWS V14.00,2013-09-02 23:34:00,
2013-09-02 18:39:00,80.8,74.4,29.84,West,277,1.0,2.0,81,0.00,,---,0.01,VWS V14.00,2013-09-02 23:39:00,
2013-09-02 18:44:00,80.8,74.4,29.84,West,276,1.0,3.0,81,0.00,,---,0.01,VWS V14.00,2013-09-02 23:44:00,
2013-09-02 18:49:00,80.5,74.1,29.84,NW,314,2.0,4.0,81,0.00,,---,0.01,VWS V14.00,2013-09-02 23:49:00,
2013-09-02 18:54:00,80.1,74.1,29.84,NW,304,2.0,3.0,82,0.00,,---,0.01,VWS V14.00,2013-09-02 23:54:00,
2013-09-02 18:59:00,79.7,73.7,29.84,NNW,329,1.0,3.0,82,0.00,,---,0.01,VWS V14.00,2013-09-02 23:59:00,
2013-09-02 19:04:00,79.3,73.7,29.84,NW,312,1.0,3.0,83,0.00,,---,0.01,VWS V14.00,2013-09-03 00:04:00,
2013-09-02 19:09:00,78.9,73.3,29.84,NW,323,2.0,4.0,83,0.00,,---,0.01,VWS V14.00,2013-09-03 00:09:00,
2013-09-02 19:14:00,78.6,73.4,29.83,NNW,333,0.0,4.0,84,0.00,,---,0.01,VWS V14.00,2013-09-03 00:14:00,
2013-09-02 19:19:00,78.3,73.4,29.84,West,270,0.0,2.0,85,0.00,,---,0.01,VWS V14.00,2013-09-03 00:19:00,
2013-09-02 19:24:00,77.9,73.0,29.84,West,281,1.0,2.0,85,0.00,,---,0.01,VWS V14.00,2013-09-03 00:24:00,
2013-09-02 19:29:00,77.7,73.2,29.85,West,278,1.0,2.0,86,0.00,,---,0.01,VWS V14.00,2013-09-03 00:29:00,
2013-09-02 19:34:00,77.4,72.9,29.84,NW,304,0.0,2.0,86,0.00,,---,0.01,VWS V14.00,2013-09-03 00:34:00,
2013-09-02 19:39:00,77.1,72.6,29.85,WNW,302,0.0,0.0,86,0.00,,---,0.01,VWS V14.00,2013-09-03 00:39:00,
2013-09-02 19:44:00,76.8,72.6,29.85,WNW,302,0.0,0.0,87,0.00,,---,0.01,VWS V14.00,2013-09-03 00:44:00,
2013-09-02 19:49:00,76.5,72.7,29.85,WNW,302,0.0,0.0,88,0.00,,---,0.01,VWS V14.00,2013-09-03 00:49:00,
2013-09-02 19:54:00,76.2,72.4,29.86,WNW,302,0.0,0.0,88,0.00,,---,0.01,VWS V14.00,2013-09-03 00:54:00,
2013-09-02 19:59:00,75.9,72.1,29.86,WNW,302,0.0,0.0,88,0.00,,---,0.01,VWS V14.00,2013-09-03 00:59:00,
2013-09-02 20:04:00,75.5,72.0,29.86,WNW,302,0.0,0.0,89,0.00,,---,0.01,VWS V14.00,2013-09-03 01:04:00,
2013-09-02 20:09:00,75.0,71.9,29.86,WNW,302,0.0,0.0,90,0.00,,---,0.01,VWS V14.00,2013-09-03 01:09:00,
2013-09-02 20:14:00,74.7,71.6,29.86,WNW,302,0.0,0.0,90,0.00,,---,0.01,VWS V14.00,2013-09-03 01:14:00,
2013-09-02 20:19:00,74.5,71.7,29.87,WNW,302,0.0,0.0,91,0.00,,---,0.01,VWS V14.00,2013-09-03 01:19:00,
2013-09-02 20:24:00,74.4,71.6,29.86,WNW,302,0.0,0.0,91,0.00,,---,0.01,VWS V14.00,2013-09-03 01:24:00,
2013-09-02 20:29:00,74.4,71.9,29.87,NNW,338,2.0,2.0,92,0.00,,---,0.01,VWS V14.00,2013-09-03 01:29:00,
2013-09-02 20:34:00,75.0,72.2,29.87,West,263,1.0,2.0,91,0.00,,---,0.01,VWS V14.00,2013-09-03 01:34:00,
2013-09-02 20:39:00,75.8,72.3,29.87,West,281,0.0,1.0,89,0.00,,---,0.01,VWS V14.00,2013-09-03 01:39:00,
2013-09-02 20:44:00,76.0,72.2,29.87,West,277,0.0,1.0,88,0.00,,---,0.01,VWS V14.00,2013-09-03 01:44:00,
2013-09-02 20:49:00,75.9,72.1,29.87,WNW,290,0.0,0.0,88,0.00,,---,0.01,VWS V14.00,2013-09-03 01:49:00,
2013-09-02 20:54:00,75.7,71.9,29.88,WNW,291,0.0,0.0,88,0.00,,---,0.01,VWS V14.00,2013-09-03 01:54:00,
2013-09-02 21:00:00,75.5,72.0,29.88,West,279,1.0,1.0,89,0.00,,---,0.01,VWS V14.00,2013-09-03 02:00:00,
2013-09-02 21:05:00,75.4,71.6,29.88,NW,314,0.0,0.0,88,0.00,,---,0.01,VWS V14.00,2013-09-03 02:05:00,
2013-09-02 21:10:00,75.2,71.7,29.88,West,279,0.0,0.0,89,0.00,,---,0.01,VWS V14.00,2013-09-03 02:10:00,
2013-09-02 21:15:00,75.0,71.5,29.88,WNW,298,0.0,0.0,89,0.00,,---,0.01,VWS V14.00,2013-09-03 02:15:00,
2013-09-02 21:20:00,74.5,71.1,29.88,West,278,0.0,0.0,89,0.00,,---,0.01,VWS V14.00,2013-09-03 02:20:00,
2013-09-02 21:25:00,74.0,70.9,29.88,West,278,0.0,0.0,90,0.00,,---,0.01,VWS V14.00,2013-09-03 02:25:00,
2013-09-02 21:30:00,73.6,70.5,29.88,West,278,0.0,0.0,90,0.00,,---,0.01,VWS V14.00,2013-09-03 02:30:00,
2013-09-02 21:36:00,73.3,70.5,29.89,West,278,0.0,0.0,91,0.00,,---,0.01,VWS V14.00,2013-09-03 02:36:00,
2013-09-02 21:41:00,73.1,70.3,29.89,West,278,0.0,0.0,91,0.00,,---,0.01,VWS V14.00,2013-09-03 02:41:00,
2013-09-02 21:46:00,72.8,70.0,29.89,West,278,0.0,0.0,91,0.00,,---,0.01,VWS V14.00,2013-09-03 02:46:00,
2013-09-02 21:51:00,72.5,70.1,29.89,West,278,0.0,0.0,92,0.00,,---,0.01,VWS V14.00,2013-09-03 02:51:00,
2013-09-02 21:56:00,72.3,70.2,29.89,West,278,0.0,0.0,93,0.00,,---,0.01,VWS V14.00,2013-09-03 02:56:00,
2013-09-02 22:01:00,72.1,70.0,29.89,West,278,0.0,0.0,93,0.00,,---,0.01,VWS V14.00,2013-09-03 03:01:00,
2013-09-02 22:06:00,71.8,69.7,29.89,West,278,0.0,0.0,93,0.00,,---,0.01,VWS V14.00,2013-09-03 03:06:00,
2013-09-02 22:11:00,71.5,69.7,29.90,West,278,0.0,0.0,94,0.00,,---,0.01,VWS V14.00,2013-09-03 03:11:00,
2013-09-02 22:17:00,71.3,69.5,29.90,West,278,0.0,0.0,94,0.00,,---,0.01,VWS V14.00,2013-09-03 03:17:00,
2013-09-02 22:22:00,70.7,68.6,29.90,West,278,0.0,0.0,93,0.00,,---,0.01,VWS V14.00,2013-09-03 03:22:00,
2013-09-02 22:27:00,70.8,69.3,29.90,West,278,0.0,0.0,95,0.00,,---,0.01,VWS V14.00,2013-09-03 03:27:00,
2013-09-02 22:32:00,70.8,69.3,29.90,West,278,0.0,0.0,95,0.00,,---,0.01,VWS V14.00,2013-09-03 03:32:00,
2013-09-02 22:37:00,70.7,69.2,29.90,West,278,0.0,0.0,95,0.00,,---,0.01,VWS V14.00,2013-09-03 03:37:00,
2013-09-02 22:42:00,70.6,69.1,29.90,West,278,0.0,0.0,95,0.00,,---,0.01,VWS V14.00,2013-09-03 03:42:00,
2013-09-02 22:47:00,70.6,69.1,29.90,West,278,0.0,0.0,95,0.00,,---,0.01,VWS V14.00,2013-09-03 03:47:00,
2013-09-02 22:52:00,70.6,69.1,29.90,West,278,0.0,0.0,95,0.00,,---,0.01,VWS V14.00,2013-09-03 03:52:00,
2013-09-02 22:57:00,70.5,69.0,29.90,West,278,0.0,0.0,95,0.00,,---,0.01,VWS V14.00,2013-09-03 03:57:00,
2013-09-02 23:01:00,70.4,68.9,29.90,West,278,0.0,0.0,95,0.00,,---,0.01,VWS V14.00,2013-09-03 04:01:00,
2013-09-02 23:02:00,70.4,68.9,29.90,West,278,0.0,0.0,95,0.00,,---,0.01,VWS V14.00,2013-09-03 04:02:00,
2013-09-02 23:03:00,70.4,68.9,29.90,West,278,0.0,0.0,95,0.00,,---,0.01,VWS V14.00,2013-09-03 04:03:00,
2013-09-02 23:08:00,70.4,68.6,29.90,West,278,0.0,0.0,94,0.00,,---,0.01,VWS V14.00,2013-09-03 04:08:00,
2013-09-02 23:13:00,70.5,68.7,29.90,West,279,0.0,0.0,94,0.00,,---,0.01,VWS V14.00,2013-09-03 04:13:00,
2013-09-02 23:18:00,70.3,68.2,29.90,West,278,0.0,0.0,93,0.00,,---,0.01,VWS V14.00,2013-09-03 04:18:00,
2013-09-02 23:23:00,70.2,68.1,29.90,West,278,0.0,0.0,93,0.00,,---,0.01,VWS V14.00,2013-09-03 04:23:00,
2013-09-02 23:28:00,70.1,68.0,29.90,West,278,0.0,0.0,93,0.00,,---,0.01,VWS V14.00,2013-09-03 04:28:00,
2013-09-02 23:33:00,70.0,67.6,29.90,West,279,0.0,0.0,92,0.00,,---,0.01,VWS V14.00,2013-09-03 04:33:00,
2013-09-02 23:39:00,70.2,67.4,29.90,West,274,0.0,0.0,91,0.00,,---,0.01,VWS V14.00,2013-09-03 04:39:00,
2013-09-02 23:44:00,70.1,67.0,29.90,West,270,0.0,0.0,90,0.00,,---,0.01,VWS V14.00,2013-09-03 04:44:00,
2013-09-02 23:49:00,69.8,67.1,29.90,West,276,0.0,0.0,91,0.00,,---,0.01,VWS V14.00,2013-09-03 04:49:00,
2013-09-02 23:54:00,69.4,66.3,29.90,West,260,0.0,0.0,90,0.00,,---,0.01,VWS V14.00,2013-09-03 04:54:00,
2013-09-02 23:59:00,68.9,66.2,29.90,West,260,0.0,0.0,91,0.00,,---,0.01,VWS V14.00,2013-09-03 04:59:00,